El Dorado, KS

7:15 PM CDT on September 27, 2016 (GMT -0500)
APRSWXNET | | Change Station

Elev 1341 ft 37.82 °N, 96.89 °W | Updated 16 minutes ago

Clear
Clear
78 °F
Feels Like 79 °F
N
3
Wind Variable Wind from ESE
Gusts 6.0 mph

Today
High -- | Low -- °F
--% Chance of Precip.
Yesterday
High -- | Low -- °F
Precip. -- in
Pressure 29.91 in
Visibility 10.0 miles
Clouds Clear
Heat Index 79 °F
Dew Point 57 °F
Humidity 48%
Rainfall in
Snow Depth Not available.
7:20 AM 7:15 PM
Waning Crescent, 9% visible
METAR KAAO 272354Z AUTO 19007KT 10SM CLR 23/13 A2993 RMK AO2 SLP127 T02330133 10278 20233 56013
Pressure 29.91 in
Visibility 10.0 miles
Clouds Clear
Heat Index 79 °F
Dew Point 57 °F
Humidity 48%
Rainfall in
Snow Depth Not available.
7:20 AM 7:15 PM
Waning Crescent, 9% visible
METAR KAAO 272354Z AUTO 19007KT 10SM CLR 23/13 A2993 RMK AO2 SLP127 T02330133 10278 20233 56013

10-Day Weather Forecast

Almanac

Astronomy

Sep. 27, 2016 Rise Set
Actual Time
Civil Twilight
Nautical Twilight
Astronomical Twilight
Moon
Length of Visible Light
Length of Day
Tomorrow will be .
, % of the Moon is Illuminated

Today's Extremes

State Highs State Lows

Community

WunderPhotos

Upload Photos

1,942,179 photos uploaded!

WunderBlog® & News

Nearby

Air Quality

  Air Quality AQ Index Pollutant
Not available.

Snow Depth

Station Depth Elevation

Earthquake Activity

City Distance Mag. Time & Date
Minimum magnitude displayed is 2.5.

Coastal Water Temperatures

Place Temperature

Stations

Nearby Weather Stations

Station Location Temp. Windchill Dew Point Humidity Wind Precip. Elev Updated Type
                   

Watches & Warnings

There are currently no watches in effect.